Pearce, AZ

10:24 AM MST on February 14, 2016 (GMT -0700)
North of Ironwood Rd. | | Change Station
CLOSE
Current Station
Personal Weather Station
Location: Pearce, AZ
Elevation: 4365 ft
Nearby Weather Stations

Elev 4365 ft 31.95 °N, 109.88 °W | Updated 2 minutes ago

Clear
Clear
61.2 °F
Feels Like 61.2 °F
N
1.0
Wind Variable Wind from WNW
Gusts 2.0 mph

Today
High -- | Low -- °F
--% Chance of Precip.
Yesterday
High -- | Low -- °F
Precip. -- in
Pressure 29.99 in
Visibility 10.0 miles
Clouds Clear
Dew Point 23 °F
Humidity 23%
Rainfall 0.00 in
Snow Depth Not available.
7:02 AM 6:04 PM
Waxing Crescent, 43% visible
METAR KDUG 141656Z AUTO 00000KT 10SM CLR 17/M08 A3011 RMK AO2 SLP156 T01721083 $
Pressure 29.99 in
Visibility 10.0 miles
Clouds Clear
Dew Point 23 °F
Humidity 23%
Rainfall 0.00 in
Snow Depth Not available.
7:02 AM 6:04 PM
Waxing Crescent, 43% visible
METAR KDUG 141656Z AUTO 00000KT 10SM CLR 17/M08 A3011 RMK AO2 SLP156 T01721083 $

10-Day Weather Forecast

Almanac

Astronomy

Feb. 14, 2016 Rise Set
Actual Time
Civil Twilight
Nautical Twilight
Astronomical Twilight
Moon
Length of Visible Light
Length of Day
Tomorrow will be .
, % of the Moon is Illuminated

Today's Extremes

State Highs State Lows

Community

WunderPhotos

Upload Photos

1,892,856 photos uploaded!

WunderBlog® & News

Nearby

Air Quality

  Air Quality AQ Index Pollutant
Not available.

Snow Depth

Station Depth Elevation

Earthquake Activity

City Distance Mag. Time & Date
Minimum magnitude displayed is 2.5.

Coastal Water Temperatures

Place Temperature

Stations

Nearby Weather Stations

Station Location Temp. Windchill Dew Point Humidity Wind Precip. Elev Updated Type
                   

Watches & Warnings

There are currently no watches in effect.